createdAt,value
2018-08-16T00:01:04.042Z,7.30
2018-08-16T00:03:33.532Z,7.67
2018-08-16T00:06:06.926Z,7.63
2018-08-16T00:08:37.283Z,8.00
2018-08-16T00:11:06.573Z,6.63
2018-08-16T00:13:35.775Z,7.53
2018-08-16T00:16:06.178Z,7.30
2018-08-16T00:18:35.841Z,8.50
2018-08-16T00:21:05.030Z,8.10
2018-08-16T00:23:34.645Z,8.23
2018-08-16T00:26:05.416Z,7.90
2018-08-16T00:28:34.704Z,7.83
2018-08-16T00:31:04.160Z,9.27
2018-08-16T00:33:33.516Z,7.53
2018-08-16T00:36:02.997Z,8.37
2018-08-16T00:38:32.158Z,8.47
2018-08-16T00:41:01.907Z,8.23
2018-08-16T00:43:31.123Z,8.27
2018-08-16T00:46:00.445Z,8.57
2018-08-16T00:48:31.125Z,8.43
2018-08-16T00:51:00.629Z,9.10
2018-08-16T00:53:29.947Z,8.63
2018-08-16T00:55:59.442Z,8.17
2018-08-16T00:58:29.411Z,8.03
2018-08-16T01:00:58.532Z,7.47
2018-08-16T01:03:32.971Z,7.80
2018-08-16T01:06:02.338Z,8.37
2018-08-16T01:08:31.557Z,7.77
2018-08-16T01:11:02.157Z,7.17
2018-08-16T01:13:31.271Z,7.17
2018-08-16T01:16:00.572Z,8.57
2018-08-16T01:18:30.173Z,8.07
2018-08-16T01:21:04.537Z,8.23
2018-08-16T01:23:34.379Z,7.33
2018-08-16T01:26:03.431Z,8.17
2018-08-16T01:28:32.543Z,8.40
2018-08-16T01:31:07.679Z,8.27
2018-08-16T01:33:36.716Z,7.30
2018-08-16T01:36:06.150Z,6.70
2018-08-16T01:38:35.766Z,6.70
2018-08-16T01:41:05.224Z,7.17
2018-08-16T01:43:34.292Z,7.30
2018-08-16T01:46:03.353Z,8.27
2018-08-16T01:48:32.801Z,8.17
2018-08-16T01:51:02.307Z,6.97
2018-08-16T01:53:31.359Z,6.97
2018-08-16T01:56:00.789Z,6.13
2018-08-16T01:58:30.186Z,7.73
2018-08-16T02:00:59.565Z,6.97
2018-08-16T02:03:28.695Z,7.00
2018-08-16T02:05:57.756Z,7.17
2018-08-16T02:08:27.007Z,7.43
2018-08-16T02:10:56.070Z,6.77
2018-08-16T02:13:25.417Z,8.67
2018-08-16T02:15:58.384Z,6.97
2018-08-16T02:18:27.504Z,6.17
2018-08-16T02:20:56.695Z,7.10
2018-08-16T02:23:27.062Z,7.67
2018-08-16T02:25:56.142Z,7.40
2018-08-16T02:28:25.147Z,7.10
2018-08-16T02:30:54.149Z,7.40
2018-08-16T02:33:23.187Z,8.50
2018-08-16T02:35:52.320Z,7.93
2018-08-16T02:38:22.770Z,8.93
2018-08-16T02:40:51.826Z,7.93
2018-08-16T02:43:20.881Z,8.53
2018-08-16T02:45:49.934Z,9.03
2018-08-16T02:48:19.651Z,9.53
2018-08-16T02:50:48.831Z,10.73
2018-08-16T02:53:17.895Z,11.20
2018-08-16T02:55:47.011Z,10.10
2018-08-16T02:58:16.591Z,9.57
2018-08-16T03:00:45.651Z,9.80
2018-08-16T03:03:14.774Z,10.57
2018-08-16T03:05:43.888Z,10.60
2018-08-16T03:08:12.994Z,11.27
2018-08-16T03:10:42.431Z,9.53
2018-08-16T03:13:11.812Z,8.83
2018-08-16T03:15:40.889Z,11.50
2018-08-16T03:18:10.074Z,11.43
2018-08-16T03:20:39.305Z,9.97
2018-08-16T03:23:09.099Z,10.00
2018-08-16T03:25:38.292Z,9.10
2018-08-16T03:28:09.374Z,8.13
2018-08-16T03:30:38.414Z,9.30
2018-08-16T03:33:07.790Z,10.90
2018-08-16T03:35:36.833Z,8.63
2018-08-16T03:38:06.512Z,10.20
2018-08-16T03:40:38.942Z,9.00
2018-08-16T03:43:08.393Z,9.00
2018-08-16T03:45:37.445Z,10.67
2018-08-16T03:48:07.274Z,8.43
2018-08-16T03:50:36.914Z,8.80
2018-08-16T03:53:06.309Z,9.90
2018-08-16T03:55:35.510Z,9.13
2018-08-16T03:58:04.985Z,9.17
2018-08-16T04:00:34.096Z,8.87
2018-08-16T04:03:03.216Z,7.37
2018-08-16T04:05:32.365Z,10.10
2018-08-16T04:08:07.699Z,8.20
2018-08-16T04:10:36.805Z,9.50
2018-08-16T04:13:06.936Z,8.27
2018-08-16T04:15:35.977Z,8.77
2018-08-16T04:18:05.460Z,8.93
2018-08-16T04:20:34.520Z,9.37
2018-08-16T04:23:03.636Z,9.30
2018-08-16T04:25:34.923Z,8.50
2018-08-16T04:28:04.604Z,8.13
2018-08-16T04:30:34.440Z,8.80
2018-08-16T04:33:05.274Z,8.30
2018-08-16T04:35:34.812Z,7.50
2018-08-16T04:38:05.079Z,8.20
2018-08-16T04:40:34.193Z,8.67
2018-08-16T04:43:03.642Z,8.37
2018-08-16T04:45:32.930Z,9.00
2018-08-16T04:48:02.253Z,8.70
2018-08-16T04:50:31.373Z,8.30
2018-08-16T04:53:00.909Z,9.07
2018-08-16T04:55:30.151Z,7.17
2018-08-16T04:57:59.260Z,8.07
2018-08-16T05:00:28.964Z,8.43
2018-08-16T05:02:58.802Z,6.53
2018-08-16T05:05:29.314Z,6.57
2018-08-16T05:07:59.955Z,7.03
2018-08-16T05:10:30.505Z,8.13
2018-08-16T05:13:00.321Z,7.47
2018-08-16T05:15:29.500Z,7.50
2018-08-16T05:17:59.471Z,8.23
2018-08-16T05:20:29.269Z,7.10
2018-08-16T05:23:00.277Z,9.43
2018-08-16T05:25:30.189Z,9.93
2018-08-16T05:28:01.436Z,9.37
2018-08-16T05:30:30.699Z,8.60
2018-08-16T05:32:59.889Z,9.90
2018-08-16T05:35:29.115Z,8.17
2018-08-16T05:37:58.568Z,7.50
2018-08-16T05:40:28.050Z,7.27
2018-08-16T05:42:58.412Z,8.10
2018-08-16T05:45:27.973Z,8.00
2018-08-16T05:47:58.068Z,8.70
2018-08-16T05:50:27.525Z,9.57
2018-08-16T05:52:56.704Z,10.60
2018-08-16T05:55:25.914Z,8.83
2018-08-16T05:57:55.642Z,8.63
2018-08-16T06:00:25.806Z,9.27
2018-08-16T06:02:55.484Z,7.50
2018-08-16T06:05:24.576Z,7.83
2018-08-16T06:07:53.698Z,7.53
2018-08-16T06:10:23.582Z,8.80
2018-08-16T06:12:52.886Z,9.67
2018-08-16T06:15:22.082Z,8.23
2018-08-16T06:17:52.731Z,7.47
2018-08-16T06:20:22.558Z,8.60
2018-08-16T06:22:51.646Z,7.37
2018-08-16T06:25:20.793Z,8.93
2018-08-16T06:27:53.119Z,9.07
2018-08-16T06:30:22.278Z,8.60
2018-08-16T06:32:51.329Z,7.87
2018-08-16T06:35:20.414Z,9.03
2018-08-16T06:37:50.943Z,10.20
2018-08-16T06:40:20.131Z,8.07
2018-08-16T06:42:49.454Z,7.97
2018-08-16T06:45:19.040Z,7.80
2018-08-16T06:47:50.234Z,9.97
2018-08-16T06:50:19.347Z,9.10
2018-08-16T06:52:48.443Z,8.83
2018-08-16T06:55:17.834Z,8.83
2018-08-16T06:57:46.901Z,8.53
2018-08-16T07:00:17.389Z,8.07
2018-08-16T07:02:46.861Z,9.27
2018-08-16T07:05:16.168Z,8.07
2018-08-16T07:07:45.226Z,8.20
2018-08-16T07:10:14.838Z,8.30
2018-08-16T07:12:49.361Z,9.10
2018-08-16T07:15:18.489Z,7.47
2018-08-16T07:17:47.659Z,8.90
2018-08-16T07:20:16.820Z,10.47
2018-08-16T07:22:46.475Z,8.70
2018-08-16T07:25:16.150Z,7.90
2018-08-16T07:27:45.366Z,8.53
2018-08-16T07:30:16.780Z,7.83
2018-08-16T07:32:45.906Z,9.60
2018-08-16T07:35:15.353Z,8.47
2018-08-16T07:37:45.280Z,7.40
2018-08-16T07:40:15.594Z,8.53
2018-08-16T07:42:44.825Z,8.53
2018-08-16T07:45:14.008Z,7.80
2018-08-16T07:47:43.165Z,8.40
2018-08-16T07:50:12.892Z,7.47
2018-08-16T07:52:42.144Z,7.23
2018-08-16T07:55:11.784Z,7.63
2018-08-16T07:57:40.958Z,7.33
2018-08-16T08:00:15.203Z,7.50
2018-08-16T08:02:44.642Z,7.80
2018-08-16T08:05:13.951Z,7.30
2018-08-16T08:07:43.700Z,7.93
2018-08-16T08:10:12.955Z,7.70
2018-08-16T08:12:42.121Z,7.93
2018-08-16T08:15:14.769Z,7.73
2018-08-16T08:17:45.305Z,7.43
2018-08-16T08:20:16.403Z,7.10
2018-08-16T08:22:45.721Z,8.03
2018-08-16T08:25:15.687Z,7.33
2018-08-16T08:27:46.504Z,7.67
2018-08-16T08:30:16.918Z,8.30
2018-08-16T08:32:46.385Z,8.50
2018-08-16T08:35:15.511Z,8.13
2018-08-16T08:37:57.125Z,9.17
2018-08-16T08:40:27.341Z,8.30
2018-08-16T08:42:58.241Z,8.30
2018-08-16T08:45:27.603Z,8.27
2018-08-16T08:47:58.732Z,9.53
2018-08-16T08:50:29.586Z,8.93
2018-08-16T08:53:10.847Z,10.00
2018-08-16T08:55:51.620Z,8.60
2018-08-16T08:58:32.934Z,10.13
2018-08-16T09:01:02.946Z,10.60
2018-08-16T09:03:33.466Z,9.43
2018-08-16T09:06:04.560Z,10.30
2018-08-16T09:08:38.424Z,10.07
2018-08-16T09:11:19.605Z,10.57
2018-08-16T09:16:01.174Z,9.83
2018-08-16T09:18:32.505Z,10.53
2018-08-16T09:21:03.529Z,10.10
2018-08-16T09:23:33.465Z,9.47
2018-08-16T09:26:07.560Z,8.50
2018-08-16T09:28:36.806Z,9.77
2018-08-16T09:31:17.307Z,9.60
2018-08-16T09:33:58.731Z,10.20
2018-08-16T09:36:27.963Z,10.23
2018-08-16T09:38:57.946Z,9.63
2018-08-16T09:41:27.680Z,10.17
2018-08-16T09:43:58.633Z,9.67
2018-08-16T09:47:07.424Z,10.10
2018-08-16T09:49:40.565Z,9.43
2018-08-16T09:52:11.868Z,8.20
2018-08-16T09:54:41.235Z,10.20
2018-08-16T09:57:11.538Z,12.03
2018-08-16T09:59:40.733Z,9.77
2018-08-16T10:02:13.549Z,11.13
2018-08-16T10:04:45.931Z,9.50
2018-08-16T10:07:15.087Z,10.33
2018-08-16T10:09:44.476Z,11.00
2018-08-16T10:12:14.150Z,10.53
2018-08-16T10:14:43.414Z,10.67
2018-08-16T10:17:12.513Z,10.23
2018-08-16T10:19:41.993Z,10.30
2018-08-16T10:22:11.538Z,11.37
2018-08-16T10:24:40.768Z,10.80
2018-08-16T10:27:10.932Z,11.03
2018-08-16T10:29:41.880Z,10.80
2018-08-16T10:32:12.113Z,10.03
2018-08-16T10:34:41.314Z,10.63
2018-08-16T10:37:10.882Z,10.23
2018-08-16T10:39:40.106Z,9.90
2018-08-16T10:42:09.707Z,11.03
2018-08-16T10:44:39.102Z,10.10
2018-08-16T10:47:08.268Z,11.17
2018-08-16T10:49:38.745Z,10.70
2018-08-16T10:52:09.839Z,10.47
2018-08-16T10:54:40.128Z,10.37
2018-08-16T10:57:10.753Z,10.73
2018-08-16T10:59:40.669Z,10.53
2018-08-16T11:02:11.112Z,8.53
2018-08-16T11:04:40.589Z,10.63
2018-08-16T11:07:09.802Z,10.60
2018-08-16T11:09:39.011Z,12.17
2018-08-16T11:12:08.726Z,9.97
2018-08-16T11:14:39.183Z,10.97
2018-08-16T11:17:09.685Z,10.30
2018-08-16T11:19:38.804Z,10.63
2018-08-16T11:22:08.359Z,10.03
2018-08-16T11:24:40.611Z,9.47
2018-08-16T11:27:25.392Z,9.97
2018-08-16T11:29:54.896Z,9.43
2018-08-16T11:32:24.095Z,10.17
2018-08-16T11:34:53.300Z,10.80
2018-08-16T11:37:25.626Z,10.53
2018-08-16T11:39:55.804Z,10.80
2018-08-16T11:42:25.634Z,11.43
2018-08-16T11:44:55.200Z,11.38
2018-08-16T11:47:24.363Z,10.67
2018-08-16T11:49:54.419Z,10.10
2018-08-16T11:52:24.529Z,10.82
2018-08-16T11:54:55.475Z,9.77
2018-08-16T11:57:25.428Z,9.63
2018-08-16T11:59:55.274Z,10.13
2018-08-16T12:02:25.057Z,10.57
2018-08-16T12:04:54.293Z,9.63
2018-08-16T12:07:23.550Z,11.37
2018-08-16T12:09:53.169Z,10.80
2018-08-16T12:12:23.693Z,11.63
2018-08-16T12:14:52.989Z,11.40
2018-08-16T12:17:22.597Z,10.88
2018-08-16T12:19:52.515Z,10.37
2018-08-16T12:22:22.475Z,11.15
2018-08-16T12:24:52.362Z,11.70
2018-08-16T12:27:22.779Z,10.53
2018-08-16T12:29:52.322Z,10.63
2018-08-16T12:32:21.783Z,12.15
2018-08-16T12:34:50.941Z,11.12
2018-08-16T12:37:20.229Z,8.63
2018-08-16T12:39:51.118Z,10.15
2018-08-16T12:42:20.948Z,9.88
2018-08-16T12:44:50.488Z,9.83
2018-08-16T12:47:20.158Z,8.70
2018-08-16T12:49:51.819Z,10.30
2018-08-16T12:52:21.642Z,9.80
2018-08-16T12:54:51.652Z,10.65
2018-08-16T12:57:24.662Z,10.18
2018-08-16T12:59:55.725Z,10.58
2018-08-16T13:02:25.544Z,10.40
2018-08-16T13:04:55.003Z,8.75
2018-08-16T13:07:25.468Z,10.60
2018-08-16T13:09:58.199Z,10.60
2018-08-16T13:12:27.502Z,11.08
2018-08-16T13:14:56.772Z,10.50
2018-08-16T13:17:25.937Z,10.95
2018-08-16T13:19:55.732Z,10.18
2018-08-16T13:22:27.274Z,11.20
2018-08-16T13:24:57.228Z,11.35
2018-08-16T13:27:27.579Z,11.73
2018-08-16T13:29:57.275Z,10.00
2018-08-16T13:32:28.589Z,10.98
2018-08-16T13:34:58.420Z,10.65
2018-08-16T13:37:29.477Z,9.93
2018-08-16T13:39:59.828Z,9.75
2018-08-16T13:42:29.463Z,11.15
2018-08-16T13:44:58.922Z,10.40
2018-08-16T13:47:29.435Z,10.32
2018-08-16T13:49:58.839Z,11.12
2018-08-16T13:52:30.099Z,12.10
2018-08-16T13:55:01.399Z,11.15
2018-08-16T13:57:32.888Z,10.15
2018-08-16T14:00:07.880Z,11.05
2018-08-16T14:02:37.100Z,10.98
2018-08-16T14:05:07.614Z,11.03
2018-08-16T14:07:37.565Z,10.80
2018-08-16T14:10:09.528Z,9.98
2018-08-16T14:12:39.768Z,10.65
2018-08-16T14:15:09.958Z,11.88
2018-08-16T14:17:39.452Z,8.48
2018-08-16T14:20:09.194Z,10.13
2018-08-16T14:22:38.858Z,9.33
2018-08-16T14:25:08.454Z,10.10
2018-08-16T14:27:39.484Z,10.65
2018-08-16T14:30:09.298Z,10.10
2018-08-16T14:32:39.167Z,11.38
2018-08-16T14:35:08.623Z,9.10
2018-08-16T14:37:37.980Z,9.78
2018-08-16T14:40:07.357Z,9.73
2018-08-16T14:42:39.888Z,11.08
2018-08-16T14:45:09.482Z,10.63
2018-08-16T14:47:38.952Z,9.93
2018-08-16T14:50:08.508Z,9.63
2018-08-16T14:52:37.847Z,10.75
2018-08-16T14:55:07.690Z,11.12
2018-08-16T14:57:37.309Z,9.80
2018-08-16T15:00:07.592Z,10.93
2018-08-16T15:02:38.898Z,9.63
2018-08-16T15:05:09.506Z,10.43
2018-08-16T15:07:38.865Z,9.33
2018-08-16T15:10:08.400Z,8.53
2018-08-16T15:12:39.465Z,10.08
2018-08-16T15:15:09.743Z,8.70
2018-08-16T15:17:39.012Z,9.70
2018-08-16T15:20:10.845Z,10.60
2018-08-16T15:22:40.338Z,9.63
2018-08-16T15:25:09.758Z,9.98
2018-08-16T15:27:40.846Z,9.40
2018-08-16T15:30:10.607Z,10.15
2018-08-16T15:32:42.810Z,10.82
2018-08-16T15:35:12.351Z,10.25
2018-08-16T15:37:41.619Z,8.83
2018-08-16T15:40:11.113Z,9.53
2018-08-16T15:42:40.610Z,10.30
2018-08-16T15:45:11.039Z,10.53
2018-08-16T15:47:40.469Z,8.08
2018-08-16T15:50:09.974Z,10.15
2018-08-16T15:52:39.984Z,9.23
2018-08-16T15:55:10.108Z,8.80
2018-08-16T15:57:39.982Z,8.70
2018-08-16T16:00:11.503Z,8.55
2018-08-16T16:02:44.327Z,9.28
2018-08-16T16:05:15.812Z,9.63
2018-08-16T16:07:48.531Z,8.80
2018-08-16T16:10:20.113Z,8.85
2018-08-16T16:12:50.478Z,8.10
2018-08-16T16:15:21.291Z,8.40
2018-08-16T16:17:52.328Z,8.25
2018-08-16T16:20:22.622Z,9.35
2018-08-16T16:22:52.786Z,8.53
2018-08-16T16:25:22.686Z,7.58
2018-08-16T16:27:52.597Z,8.68
2018-08-16T16:30:23.367Z,8.60
2018-08-16T16:32:54.333Z,9.10
2018-08-16T16:35:24.037Z,8.50
2018-08-16T16:37:53.660Z,7.72
2018-08-16T16:40:23.483Z,9.08
2018-08-16T16:42:54.411Z,7.20
2018-08-16T16:45:25.528Z,9.43
2018-08-16T16:47:55.998Z,7.83
2018-08-16T16:50:25.379Z,9.23
2018-08-16T16:52:57.425Z,9.65
2018-08-16T16:55:28.110Z,8.73
2018-08-16T16:57:58.302Z,8.73
2018-08-16T17:00:28.943Z,8.60
2018-08-16T17:03:01.218Z,7.87
2018-08-16T17:05:36.232Z,9.10
2018-08-16T17:08:07.662Z,7.90
2018-08-16T17:10:37.447Z,8.05
2018-08-16T17:13:08.287Z,8.88
2018-08-16T17:15:40.174Z,9.15
2018-08-16T17:18:10.971Z,8.60
2018-08-16T17:20:40.808Z,9.03
2018-08-16T17:23:10.258Z,8.55
2018-08-16T17:25:39.868Z,8.13
2018-08-16T17:28:10.743Z,7.67
2018-08-16T17:30:41.712Z,8.20
2018-08-16T17:33:12.691Z,8.35
2018-08-16T17:35:43.428Z,8.23
2018-08-16T17:38:13.813Z,9.00
2018-08-16T17:40:43.190Z,8.10
2018-08-16T17:43:13.568Z,8.70
2018-08-16T17:45:43.828Z,8.40
2018-08-16T17:48:14.174Z,8.55
2018-08-16T17:50:44.313Z,8.67
2018-08-16T17:53:14.656Z,8.77
2018-08-16T17:55:43.867Z,9.37
2018-08-16T17:58:13.353Z,9.47
2018-08-16T18:00:43.449Z,8.43
2018-08-16T18:03:13.736Z,8.10
2018-08-16T18:05:43.214Z,10.13
2018-08-16T18:08:12.862Z,7.33
2018-08-16T18:10:42.900Z,8.77
2018-08-16T18:13:12.912Z,9.50
2018-08-16T18:15:43.414Z,9.73
2018-08-16T18:18:12.894Z,8.73
2018-08-16T18:20:44.561Z,9.20
2018-08-16T18:23:14.203Z,8.93
2018-08-16T18:25:45.653Z,8.93
2018-08-16T18:28:17.914Z,7.53
2018-08-16T18:30:49.109Z,6.43
2018-08-16T18:33:18.626Z,6.23
2018-08-16T18:35:51.403Z,8.03
2018-08-16T18:38:21.628Z,6.87
2018-08-16T18:40:55.089Z,7.63
2018-08-16T18:43:25.367Z,8.13
2018-08-16T18:45:56.793Z,8.77
2018-08-16T18:48:27.304Z,6.40
2018-08-16T18:50:56.881Z,7.23
2018-08-16T18:53:28.064Z,8.23
2018-08-16T18:56:02.322Z,7.27
2018-08-16T18:58:31.891Z,7.10
2018-08-16T19:01:05.480Z,9.77
2018-08-16T19:03:34.902Z,8.23
2018-08-16T19:06:04.590Z,8.50
2018-08-16T19:08:34.419Z,7.97
2018-08-16T19:11:03.944Z,11.87
2018-08-16T19:13:34.383Z,9.27
2018-08-16T19:16:05.438Z,10.73
2018-08-16T19:18:34.713Z,7.30
2018-08-16T19:21:04.011Z,8.07
2018-08-16T19:23:33.328Z,9.23
2018-08-16T19:26:03.276Z,7.13
2018-08-16T19:28:33.618Z,9.03
2018-08-16T19:31:06.378Z,9.27
2018-08-16T19:33:36.900Z,8.20
2018-08-16T19:36:06.379Z,8.27
2018-08-16T19:38:35.810Z,7.93
2018-08-16T19:41:09.235Z,9.33
2018-08-16T19:43:38.588Z,9.97
2018-08-16T19:46:08.293Z,9.73
2018-08-16T19:48:38.462Z,9.53
2018-08-16T19:51:08.219Z,10.60
2018-08-16T19:53:37.840Z,9.00
2018-08-16T19:56:09.232Z,9.63
2018-08-16T19:58:38.837Z,10.03
2018-08-16T20:01:14.037Z,9.47
2018-08-16T20:03:44.157Z,9.43
2018-08-16T20:06:14.523Z,10.07
2018-08-16T20:08:45.111Z,10.43
2018-08-16T20:11:14.517Z,9.53
2018-08-16T20:14:00.365Z,11.30
2018-08-16T20:16:36.289Z,10.83
2018-08-16T20:19:11.161Z,11.10
2018-08-16T20:21:40.856Z,9.83
2018-08-16T20:24:10.510Z,12.13
2018-08-16T20:26:40.060Z,11.67
2018-08-16T20:29:10.028Z,10.43
2018-08-16T20:31:41.216Z,14.67
2018-08-16T20:34:10.880Z,10.80
2018-08-16T20:37:51.820Z,10.43
2018-08-16T20:40:22.181Z,10.83
2018-08-16T20:42:51.646Z,11.70
2018-08-16T20:45:22.227Z,10.43
2018-08-16T20:47:56.184Z,10.93
2018-08-16T20:52:47.765Z,11.93
2018-08-16T20:55:17.407Z,12.20
2018-08-16T20:57:48.236Z,12.20
2018-08-16T21:00:18.936Z,10.37
2018-08-16T21:02:48.217Z,8.63
2018-08-16T21:05:18.283Z,10.83
2018-08-16T21:07:48.827Z,11.13
2018-08-16T21:10:18.554Z,12.13
2018-08-16T21:12:51.276Z,11.27
2018-08-16T21:15:20.647Z,10.63
2018-08-16T21:17:50.281Z,11.53
2018-08-16T21:20:20.403Z,10.87
2018-08-16T21:22:49.727Z,10.53
2018-08-16T21:25:18.991Z,10.03
2018-08-16T21:27:48.517Z,11.70
2018-08-16T21:30:19.687Z,9.83
2018-08-16T21:32:49.847Z,9.87
2018-08-16T21:35:19.110Z,11.03
2018-08-16T21:37:48.361Z,11.43
2018-08-16T21:40:18.382Z,11.77
2018-08-16T21:42:47.716Z,11.00
2018-08-16T21:45:17.822Z,11.10
2018-08-16T21:47:47.046Z,10.93
2018-08-16T21:50:17.006Z,12.30
2018-08-16T21:52:46.427Z,10.57
2018-08-16T21:55:15.755Z,11.23
2018-08-16T21:57:45.055Z,11.40
2018-08-16T22:00:26.822Z,11.63
2018-08-16T22:02:56.302Z,11.50
2018-08-16T22:05:26.111Z,11.67
2018-08-16T22:08:10.872Z,11.57
2018-08-16T22:10:41.100Z,11.73
2018-08-16T22:13:13.643Z,11.13
2018-08-16T22:15:44.473Z,9.70
2018-08-16T22:18:14.341Z,13.30
2018-08-16T22:20:43.475Z,12.90
2018-08-16T22:23:13.066Z,13.70
2018-08-16T22:25:42.583Z,12.80
2018-08-16T22:28:12.211Z,11.90
2018-08-16T22:30:41.813Z,11.07
2018-08-16T22:33:11.642Z,11.53
2018-08-16T22:35:40.855Z,10.60
2018-08-16T22:38:11.341Z,10.13
2018-08-16T22:40:40.803Z,10.50
2018-08-16T22:43:18.296Z,10.00
2018-08-16T22:45:48.558Z,11.63
2018-08-16T22:48:17.706Z,10.70
2018-08-16T22:50:47.194Z,11.47
2018-08-16T22:53:17.867Z,11.83
2018-08-16T22:55:47.294Z,11.93
2018-08-16T22:58:16.615Z,12.37
2018-08-16T23:00:46.829Z,11.77
2018-08-16T23:03:16.392Z,11.40
2018-08-16T23:05:45.689Z,11.07
2018-08-16T23:08:14.870Z,10.13
2018-08-16T23:10:44.185Z,10.90
2018-08-16T23:13:13.370Z,10.57
2018-08-16T23:15:43.689Z,12.00
2018-08-16T23:18:12.904Z,11.60
2018-08-16T23:20:42.229Z,11.67
2018-08-16T23:23:11.585Z,12.10
2018-08-16T23:25:40.704Z,10.67
2018-08-16T23:28:10.454Z,11.77
2018-08-16T23:30:40.966Z,13.00
2018-08-16T23:33:10.905Z,13.60
2018-08-16T23:35:40.279Z,11.40
2018-08-16T23:38:11.965Z,11.63
2018-08-16T23:40:41.444Z,13.83
2018-08-16T23:43:10.659Z,13.30
2018-08-16T23:45:40.102Z,13.33
2018-08-16T23:48:31.379Z,13.00
2018-08-16T23:51:00.888Z,13.30
2018-08-16T23:53:30.861Z,11.27
2018-08-16T23:56:00.125Z,13.93
2018-08-16T23:58:29.756Z,12.73
